Time;durP1;ratioP1;P1;durP2;ratioP2;P2;SDS_P1;SDS_P2;PMS_P1;PMS_P2;Temp;Humidity;BMP_temperature;BMP_pressure;BME280_temperature;BME280_humidity;BME280_pressure;Samples;Min_cycle;Max_cycle;Signal;HPM_P1;HPM_P2
2022/08/22 00:00:51;;;;;;;;;;;;;;;22.12;70.67;98803.19;3151804;27;19924;-65
2022/08/22 00:02:31;;;;;;;;;;;;;;;22.13;70.67;98804.06;3144401;27;19929;-63
2022/08/22 00:04:06;;;;;;;;;;;;;;;22.11;70.37;98812.16;3121476;28;19975;-65
2022/08/22 00:05:45;;;;;;;;;;;;;;;22.10;70.61;98807.03;3121134;28;20329;-65
2022/08/22 00:07:22;;;;;;;;;;;;;;;22.10;70.16;98810.53;3119364;28;20085;-64
2022/08/22 00:09:00;;;;;;;;;;;;;;;22.11;70.70;98811.34;3121234;28;19929;-63
2022/08/22 00:10:35;;;;;;;;;;;;;;;22.08;70.41;98820.44;3120190;28;19929;-64
2022/08/22 00:12:14;;;;;;;;;;;;;;;22.06;70.34;98824.25;3113151;28;19926;-64
2022/08/22 00:13:52;;;;;;;;;;;;;;;22.04;70.29;98816.50;3121231;28;19925;-64
2022/08/22 00:15:28;;;;;;;;;;;;;;;22.06;70.19;98816.31;3121385;28;19925;-64
2022/08/22 00:17:02;;;;;;;;;;;;;;;22.08;70.19;98816.97;3121316;28;20288;-65
2022/08/22 00:18:36;;;;;;;;;;;;;;;22.07;70.04;98816.16;3121033;28;19929;-64
2022/08/22 00:20:11;;;;;;;;;;;;;;;22.07;70.12;98825.94;3121138;28;20382;-65
2022/08/22 00:21:47;;;;;;;;;;;;;;;22.03;70.15;98828.88;3121197;28;19940;-64
2022/08/22 00:23:22;;;;;;;;;;;;;;;22.04;70.09;98827.09;3121212;28;20313;-66
2022/08/22 00:24:56;;;;;;;;;;;;;;;22.03;70.39;98826.25;3121208;28;19929;-66
2022/08/22 00:26:34;;;;;;;;;;;;;;;22.05;70.15;98828.75;3127351;28;19951;-66
2022/08/22 00:28:09;;;;;;;;;;;;;;;22.06;70.64;98827.72;3123803;28;19927;-65
2022/08/22 00:29:44;;;;;;;;;;;;;;;22.07;70.66;98831.25;3115235;28;19925;-66
2022/08/22 00:31:21;;;;;;;;;;;;;;;22.04;70.44;98833.22;3121466;28;19925;-65
2022/08/22 00:32:54;;;;;;;;;;;;;;;22.03;70.56;98820.94;3121059;28;20269;-65
2022/08/22 00:34:30;;;;;;;;;;;;;;;22.00;70.58;98821.28;3121201;28;19936;-65
2022/08/22 00:36:07;;;;;;;;;;;;;;;21.97;70.22;98821.59;3121424;28;19936;-65
2022/08/22 00:37:41;;;;;;;;;;;;;;;21.90;70.26;98825.09;3121163;28;19926;-65
2022/08/22 00:39:15;;;;;;;;;;;;;;;21.83;70.26;98827.59;3121248;28;20004;-65
2022/08/22 00:40:53;;;;;;;;;;;;;;;21.84;70.20;98815.16;3120919;28;20307;-66
2022/08/22 00:42:47;;;;;;;;;;;;;;;21.81;70.15;98814.50;3110827;28;20430;-66
2022/08/22 00:44:42;;;;;;;;;;;;;;;21.84;70.23;98815.16;3120374;28;19926;-66
2022/08/22 00:46:39;;;;;;;;;;;;;;;21.85;70.35;98816.81;3121285;28;19929;-65
2022/08/22 00:48:28;;;;;;;;;;;;;;;21.84;70.10;98825.78;3116279;28;19925;-65
2022/08/22 00:50:06;;;;;;;;;;;;;;;21.85;70.18;98825.59;3109614;28;19925;-66
2022/08/22 00:51:53;;;;;;;;;;;;;;;21.85;70.13;98827.41;3121172;28;19964;-66
2022/08/22 00:53:31;;;;;;;;;;;;;;;21.85;70.17;98822.94;3122124;28;19939;-65
2022/08/22 00:55:27;;;;;;;;;;;;;;;21.86;70.20;98821.09;3120908;28;19979;-65
2022/08/22 00:57:13;;;;;;;;;;;;;;;21.86;70.10;98818.47;3135653;28;19977;-65
2022/08/22 00:58:59;;;;;;;;;;;;;;;21.87;69.93;98820.97;3121285;28;20110;-65
2022/08/22 01:00:34;;;;;;;;;;;;;;;21.88;69.79;98812.00;3120845;28;19925;-65
2022/08/22 01:02:13;;;;;;;;;;;;;;;21.89;69.77;98812.81;3120687;28;20379;-65
2022/08/22 01:04:00;;;;;;;;;;;;;;;21.90;70.01;98814.50;3120326;28;19929;-65
2022/08/22 01:05:43;;;;;;;;;;;;;;;21.89;69.98;98811.03;3114460;28;19929;-65
2022/08/22 01:07:25;;;;;;;;;;;;;;;21.88;69.98;98804.06;3118946;28;19940;-65
2022/08/22 01:09:01;;;;;;;;;;;;;;;21.87;70.06;98807.72;3121058;28;19925;-65
2022/08/22 01:10:40;;;;;;;;;;;;;;;21.89;70.19;98813.69;3120605;28;19929;-65
2022/08/22 01:12:19;;;;;;;;;;;;;;;21.90;70.42;98810.03;3120873;28;19940;-65
2022/08/22 01:13:56;;;;;;;;;;;;;;;21.90;70.27;98812.69;3120641;28;20383;-65
2022/08/22 01:15:30;;;;;;;;;;;;;;;21.92;70.67;98817.81;3120892;28;20008;-65
2022/08/22 01:17:19;;;;;;;;;;;;;;;21.90;70.45;98822.44;3120899;28;19994;-65
2022/08/22 01:18:58;;;;;;;;;;;;;;;21.90;70.68;98825.94;3120702;28;19925;-65
2022/08/22 01:20:47;;;;;;;;;;;;;;;21.91;70.63;98832.88;3120554;28;20364;-63
2022/08/22 01:22:39;;;;;;;;;;;;;;;21.91;71.13;98835.53;3120266;28;19982;-63
2022/08/22 01:24:25;;;;;;;;;;;;;;;21.91;71.03;98835.53;3120662;28;19925;-64
2022/08/22 01:26:14;;;;;;;;;;;;;;;21.91;71.30;98832.06;3122744;28;19926;-64
2022/08/22 01:28:04;;;;;;;;;;;;;;;21.91;71.31;98826.75;3126162;28;20034;-64
2022/08/22 01:30:00;;;;;;;;;;;;;;;21.93;71.27;98833.56;3120680;28;19925;-64
2022/08/22 01:31:50;;;;;;;;;;;;;;;21.93;71.58;98836.19;3120798;28;19925;-66
2022/08/22 01:33:40;;;;;;;;;;;;;;;21.93;71.58;98830.91;3120537;28;19929;-64
2022/08/22 01:35:24;;;;;;;;;;;;;;;21.92;71.92;98831.06;3120477;28;20353;-64
2022/08/22 01:37:13;;;;;;;;;;;;;;;21.90;72.18;98831.22;3120607;28;19926;-65
2022/08/22 01:38:59;;;;;;;;;;;;;;;21.87;72.72;98822.78;3120801;28;19929;-64
2022/08/22 01:40:37;;;;;;;;;;;;;;;21.84;72.64;98831.88;3127982;28;19933;-64
2022/08/22 01:42:30;;;;;;;;;;;;;;;21.83;72.40;98830.25;3111260;28;19990;-64
2022/08/22 01:44:13;;;;;;;;;;;;;;;21.85;72.33;98832.72;3117392;28;20260;-64
2022/08/22 01:46:11;;;;;;;;;;;;;;;21.84;72.74;98828.41;3120384;28;20305;-64
2022/08/22 01:47:46;;;;;;;;;;;;;;;21.84;72.48;98823.13;3120628;28;19929;-64
2022/08/22 01:49:21;;;;;;;;;;;;;;;21.85;72.32;98825.59;3120512;28;20352;-64
2022/08/22 01:50:57;;;;;;;;;;;;;;;21.84;72.39;98818.63;3120638;28;20398;-64
2022/08/22 01:52:36;;;;;;;;;;;;;;;21.85;72.23;98820.28;3120385;28;19936;-64
2022/08/22 01:54:10;;;;;;;;;;;;;;;21.86;72.35;98821.97;3120491;28;20680;-64
2022/08/22 01:55:46;;;;;;;;;;;;;;;21.86;72.24;98821.97;3120786;28;19925;-65
2022/08/22 01:57:19;;;;;;;;;;;;;;;21.80;72.87;98825.28;3122690;28;19940;-64
2022/08/22 01:58:54;;;;;;;;;;;;;;;21.74;73.43;98825.91;3122687;28;19936;-65
2022/08/22 02:00:27;;;;;;;;;;;;;;;21.66;73.79;98828.56;3122502;28;19925;-65
2022/08/22 02:02:01;;;;;;;;;;;;;;;21.63;73.97;98831.56;3122511;28;19932;-65
2022/08/22 02:03:36;;;;;;;;;;;;;;;21.62;73.94;98837.81;3122454;28;20000;-64
2022/08/22 02:05:13;;;;;;;;;;;;;;;21.58;74.25;98838.16;3113340;28;19929;-65
2022/08/22 02:06:50;;;;;;;;;;;;;;;21.53;74.43;98839.63;3122431;28;19996;-64
2022/08/22 02:08:28;;;;;;;;;;;;;;;21.49;74.59;98836.47;3122248;28;19925;-65
2022/08/22 02:10:05;;;;;;;;;;;;;;;21.50;74.26;98840.81;3137384;27;19925;-63
2022/08/22 02:11:42;;;;;;;;;;;;;;;21.51;74.38;98837.16;3112623;28;19926;-64
2022/08/22 02:13:30;;;;;;;;;;;;;;;21.51;75.05;98834.50;3110120;28;19937;-64
2022/08/22 02:15:07;;;;;;;;;;;;;;;21.50;74.92;98845.25;3110209;28;19925;-64
2022/08/22 02:16:41;;;;;;;;;;;;;;;21.45;75.48;98845.75;3122301;28;19926;-64
2022/08/22 02:18:19;;;;;;;;;;;;;;;21.39;75.84;98845.56;3122287;28;20296;-64
2022/08/22 02:19:57;;;;;;;;;;;;;;;21.38;75.66;98839.44;3122629;28;19925;-65
2022/08/22 02:21:38;;;;;;;;;;;;;;;21.40;75.89;98839.28;3122109;28;19925;-64
2022/08/22 02:23:19;;;;;;;;;;;;;;;21.41;75.24;98841.75;3122426;28;19936;-65
2022/08/22 02:24:52;;;;;;;;;;;;;;;21.44;75.14;98840.59;3122091;28;20256;-65
2022/08/22 02:26:26;;;;;;;;;;;;;;;21.45;75.04;98843.09;3121074;28;19990;-65
2022/08/22 02:28:01;;;;;;;;;;;;;;;21.45;75.57;98839.63;3120749;28;20016;-65
2022/08/22 02:29:34;;;;;;;;;;;;;;;21.39;75.87;98840.28;3118036;28;19930;-65
2022/08/22 02:31:09;;;;;;;;;;;;;;;21.35;76.13;98842.38;3116252;28;19925;-65
2022/08/22 02:32:49;;;;;;;;;;;;;;;21.32;75.97;98835.56;3122455;28;19936;-65
2022/08/22 02:34:30;;;;;;;;;;;;;;;21.30;76.54;98839.41;3122236;28;19925;-65
2022/08/22 02:36:07;;;;;;;;;;;;;;;21.26;76.30;98836.22;3122351;28;19974;-65
2022/08/22 02:37:41;;;;;;;;;;;;;;;21.27;76.01;98842.38;3121527;28;19925;-65
2022/08/22 02:39:20;;;;;;;;;;;;;;;21.29;76.18;98832.41;3122258;28;19925;-65
2022/08/22 02:41:00;;;;;;;;;;;;;;;21.31;76.05;98841.03;3122110;28;20548;-65
2022/08/22 02:42:36;;;;;;;;;;;;;;;21.33;75.94;98837.25;3112435;28;19925;-65
2022/08/22 02:44:15;;;;;;;;;;;;;;;21.35;76.15;98840.56;3122169;28;19928;-65
2022/08/22 02:45:50;;;;;;;;;;;;;;;21.39;75.51;98833.16;3122109;28;20360;-65
2022/08/22 02:47:27;;;;;;;;;;;;;;;21.42;75.79;98832.84;3122259;28;19925;-65
2022/08/22 02:49:04;;;;;;;;;;;;;;;21.43;76.07;98839.78;3122389;28;19925;-65
2022/08/22 02:50:41;;;;;;;;;;;;;;;21.36;76.28;98844.06;3121998;28;20368;-65
2022/08/22 02:52:15;;;;;;;;;;;;;;;21.35;76.59;98842.38;3122102;28;19940;-65
2022/08/22 02:53:49;;;;;;;;;;;;;;;21.31;77.08;98841.88;3121809;28;20300;-65
2022/08/22 02:55:30;;;;;;;;;;;;;;;21.30;76.87;98842.88;3122006;28;19936;-64
2022/08/22 02:57:05;;;;;;;;;;;;;;;21.25;77.33;98839.88;3121999;28;19925;-64
2022/08/22 02:58:42;;;;;;;;;;;;;;;21.17;77.60;98839.00;3121840;28;19937;-63
2022/08/22 03:00:17;;;;;;;;;;;;;;;21.16;77.72;98842.66;3121739;28;19940;-64
2022/08/22 03:01:49;;;;;;;;;;;;;;;21.13;77.83;98838.50;3121904;28;19925;-63
2022/08/22 03:03:22;;;;;;;;;;;;;;;21.11;78.01;98846.59;3122118;28;19980;-63
2022/08/22 03:04:56;;;;;;;;;;;;;;;21.12;77.95;98850.91;3121877;28;19925;-64
2022/08/22 03:06:32;;;;;;;;;;;;;;;21.16;77.63;98859.38;3120132;28;20376;-65
2022/08/22 03:08:08;;;;;;;;;;;;;;;21.19;77.51;98856.41;3109830;28;19936;-65
2022/08/22 03:09:42;;;;;;;;;;;;;;;21.22;76.98;98852.59;3121717;28;19925;-65
2022/08/22 03:11:20;;;;;;;;;;;;;;;21.25;77.09;98858.41;3114714;28;19925;-65
2022/08/22 03:12:55;;;;;;;;;;;;;;;21.28;76.58;98857.25;3119671;28;20292;-65
2022/08/22 03:14:32;;;;;;;;;;;;;;;21.30;76.65;98857.94;3121825;28;20288;-65
2022/08/22 03:16:06;;;;;;;;;;;;;;;21.32;76.40;98851.47;3121882;28;20380;-65
2022/08/22 03:17:45;;;;;;;;;;;;;;;21.34;76.21;98852.13;3121838;28;19995;-65
2022/08/22 03:19:20;;;;;;;;;;;;;;;21.35;76.23;98852.97;3121743;28;20261;-65
2022/08/22 03:20:53;;;;;;;;;;;;;;;21.38;75.96;98852.66;3121646;28;20253;-65
2022/08/22 03:22:29;;;;;;;;;;;;;;;21.41;75.67;98857.63;3121561;28;19929;-65
2022/08/22 03:24:05;;;;;;;;;;;;;;;21.41;75.61;98852.34;3121583;28;20369;-65
2022/08/22 03:25:38;;;;;;;;;;;;;;;21.40;75.72;98855.16;3121581;28;19929;-65
2022/08/22 03:27:16;;;;;;;;;;;;;;;21.39;75.76;98859.63;3121687;28;20029;-65
2022/08/22 03:28:49;;;;;;;;;;;;;;;21.39;75.74;98856.16;3122050;28;19929;-65
2022/08/22 03:30:22;;;;;;;;;;;;;;;21.39;75.59;98853.53;3111156;28;19999;-65
2022/08/22 03:32:07;;;;;;;;;;;;;;;21.35;75.62;98858.25;3121876;28;19990;-65
2022/08/22 03:33:39;;;;;;;;;;;;;;;21.31;75.75;98852.47;3121083;28;20089;-65
2022/08/22 03:35:21;;;;;;;;;;;;;;;21.30;75.86;98857.94;3121698;28;20334;-64
2022/08/22 03:37:00;;;;;;;;;;;;;;;21.29;75.85;98856.25;3121678;28;20417;-65
2022/08/22 03:38:44;;;;;;;;;;;;;;;21.29;76.12;98853.59;3121476;28;20274;-65
2022/08/22 03:40:25;;;;;;;;;;;;;;;21.29;75.95;98850.97;3121463;28;20024;-65
2022/08/22 03:42:02;;;;;;;;;;;;;;;21.27;75.96;98853.78;3113576;28;20365;-65
2022/08/22 03:43:43;;;;;;;;;;;;;;;21.26;75.66;98857.41;3120411;28;19991;-65
2022/08/22 03:45:33;;;;;;;;;;;;;;;21.23;76.18;98855.06;3121600;28;20347;-65
2022/08/22 03:47:14;;;;;;;;;;;;;;;21.18;76.26;98853.88;3121474;28;19943;-65
2022/08/22 03:49:01;;;;;;;;;;;;;;;21.15;76.10;98865.66;3121479;28;19972;-65
2022/08/22 03:50:51;;;;;;;;;;;;;;;21.11;76.32;98857.19;3121509;28;19955;-65
2022/08/22 03:52:33;;;;;;;;;;;;;;;21.10;76.43;98860.81;3121524;28;20452;-65
2022/08/22 03:54:14;;;;;;;;;;;;;;;21.11;76.33;98867.78;3121779;28;19993;-65
2022/08/22 03:56:10;;;;;;;;;;;;;;;21.10;76.56;98865.28;3121586;28;19925;-65
2022/08/22 03:57:54;;;;;;;;;;;;;;;21.09;76.48;98874.25;3136220;28;19925;-65
2022/08/22 03:59:48;;;;;;;;;;;;;;;21.06;76.24;98866.59;3121366;28;19925;-65
2022/08/22 04:01:32;;;;;;;;;;;;;;;21.02;76.22;98870.56;3120211;28;19925;-65
2022/08/22 04:03:34;;;;;;;;;;;;;;;20.98;76.18;98872.69;3109312;28;19929;-65
2022/08/22 04:05:23;;;;;;;;;;;;;;;20.96;76.46;98874.66;3150808;28;19981;-65
2022/08/22 04:07:04;;;;;;;;;;;;;;;20.95;76.48;98872.19;3151430;28;19959;-65
2022/08/22 04:08:49;;;;;;;;;;;;;;;20.95;76.65;98873.00;3121655;28;19938;-65
2022/08/22 04:10:38;;;;;;;;;;;;;;;20.95;77.17;98873.00;3121486;28;20034;-65
2022/08/22 04:12:27;;;;;;;;;;;;;;;20.95;77.32;98878.31;3113460;28;20353;-65
2022/08/22 04:14:15;;;;;;;;;;;;;;;20.92;77.46;98870.69;3127509;28;20249;-65
2022/08/22 04:16:04;;;;;;;;;;;;;;;20.94;77.00;98881.09;3121466;28;19936;-65
2022/08/22 04:17:54;;;;;;;;;;;;;;;20.94;76.86;98892.53;3121318;28;19973;-65
2022/08/22 04:19:41;;;;;;;;;;;;;;;20.95;77.09;98891.53;3111541;28;19925;-65
2022/08/22 04:21:19;;;;;;;;;;;;;;;20.96;77.33;98887.06;3117732;28;19925;-65
2022/08/22 04:23:09;;;;;;;;;;;;;;;20.96;77.78;98887.88;3117426;28;20099;-65
2022/08/22 04:24:48;;;;;;;;;;;;;;;20.97;77.25;98884.28;3121201;28;19925;-65
2022/08/22 04:26:25;;;;;;;;;;;;;;;20.99;77.44;98887.56;3120993;28;20280;-65
2022/08/22 04:28:02;;;;;;;;;;;;;;;21.01;77.33;98885.59;3121016;28;19952;-65
2022/08/22 04:29:37;;;;;;;;;;;;;;;21.03;77.06;98885.44;3120645;28;19925;-65
2022/08/22 04:31:11;;;;;;;;;;;;;;;21.07;76.92;98884.97;3121289;28;20323;-65
2022/08/22 04:32:44;;;;;;;;;;;;;;;21.11;77.26;98880.19;3121054;28;20388;-65
2022/08/22 04:34:18;;;;;;;;;;;;;;;21.12;77.48;98881.88;3121333;28;19929;-65
2022/08/22 04:35:58;;;;;;;;;;;;;;;21.12;77.73;98885.34;3121233;28;19947;-65
2022/08/22 04:37:32;;;;;;;;;;;;;;;21.11;77.56;98881.00;3121497;28;19925;-65
2022/08/22 04:39:07;;;;;;;;;;;;;;;21.11;77.78;98880.19;3121048;28;19932;-65
2022/08/22 04:40:43;;;;;;;;;;;;;;;21.11;77.86;98881.00;3120934;28;20355;-65
2022/08/22 04:42:17;;;;;;;;;;;;;;;21.12;77.64;98880.03;3110771;28;20343;-65
2022/08/22 04:43:50;;;;;;;;;;;;;;;21.16;77.46;98877.91;3121347;28;20299;-65
2022/08/22 04:45:23;;;;;;;;;;;;;;;21.18;77.29;98878.56;3121098;28;20279;-65
2022/08/22 04:46:59;;;;;;;;;;;;;;;21.21;77.19;98880.91;3121220;28;19933;-65
2022/08/22 04:48:34;;;;;;;;;;;;;;;21.23;77.12;98876.25;3121195;28;19975;-65
2022/08/22 04:50:09;;;;;;;;;;;;;;;21.23;77.97;98880.72;3121533;28;19933;-65
2022/08/22 04:51:45;;;;;;;;;;;;;;;21.24;78.04;98885.88;3121130;28;20289;-65
2022/08/22 04:53:26;;;;;;;;;;;;;;;21.28;77.47;98889.03;3121037;28;19988;-65
2022/08/22 04:55:04;;;;;;;;;;;;;;;21.31;77.89;98888.72;3121053;28;19929;-65
2022/08/22 04:56:37;;;;;;;;;;;;;;;21.35;77.66;98887.38;3121151;28;19929;-65
2022/08/22 04:58:18;;;;;;;;;;;;;;;21.41;77.33;98894.72;3121237;28;19925;-65
2022/08/22 04:59:50;;;;;;;;;;;;;;;21.46;77.77;98896.91;3121321;28;20058;-65
2022/08/22 05:01:24;;;;;;;;;;;;;;;21.50;77.30;98898.22;3121050;28;20008;-66
2022/08/22 05:03:00;;;;;;;;;;;;;;;21.56;76.76;98895.78;3109099;28;19925;-65
2022/08/22 05:04:35;;;;;;;;;;;;;;;21.62;76.36;98896.09;3120812;28;19990;-66
2022/08/22 05:06:08;;;;;;;;;;;;;;;21.67;76.46;98901.75;3120848;28;20392;-65
2022/08/22 05:07:41;;;;;;;;;;;;;;;21.67;75.89;98910.53;3118984;28;20280;-65
2022/08/22 05:09:14;;;;;;;;;;;;;;;21.68;75.81;98911.34;3121054;28;20606;-65
2022/08/22 05:10:46;;;;;;;;;;;;;;;21.73;75.83;98917.00;3117853;28;20365;-65
2022/08/22 05:12:22;;;;;;;;;;;;;;;21.78;75.50;98917.34;3114143;28;20439;-65
2022/08/22 05:13:57;;;;;;;;;;;;;;;21.83;75.61;98920.34;3121086;28;19929;-65
2022/08/22 05:15:31;;;;;;;;;;;;;;;21.86;75.52;98919.19;3120888;28;19925;-65
2022/08/22 05:17:06;;;;;;;;;;;;;;;21.90;75.32;98924.00;3121429;28;19929;-65
2022/08/22 05:18:43;;;;;;;;;;;;;;;21.96;75.25;98915.41;3121011;28;20414;-65
2022/08/22 05:20:17;;;;;;;;;;;;;;;22.04;75.16;98926.00;3121051;28;19925;-65
2022/08/22 05:21:50;;;;;;;;;;;;;;;22.11;75.10;98931.47;3120819;28;20292;-65
2022/08/22 05:23:23;;;;;;;;;;;;;;;22.17;74.79;98932.69;3109087;28;19925;-65
2022/08/22 05:24:57;;;;;;;;;;;;;;;22.20;74.70;98933.16;3119839;28;19955;-65
2022/08/22 05:26:30;;;;;;;;;;;;;;;22.22;74.48;98935.69;3120047;28;19929;-65
2022/08/22 05:28:06;;;;;;;;;;;;;;;22.23;74.26;98929.38;3120571;28;20425;-65
2022/08/22 05:29:40;;;;;;;;;;;;;;;22.25;73.68;98930.88;3115921;28;20364;-65
2022/08/22 05:31:14;;;;;;;;;;;;;;;22.29;73.57;98936.66;3116906;28;19936;-65
2022/08/22 05:32:49;;;;;;;;;;;;;;;22.32;73.46;98931.03;3123060;28;19925;-65
2022/08/22 05:34:23;;;;;;;;;;;;;;;22.49;73.19;98932.69;3122868;28;20304;-65
2022/08/22 05:35:58;;;;;;;;;;;;;;;23.19;70.95;98933.91;3123012;28;19925;-65
2022/08/22 05:37:35;;;;;;;;;;;;;;;23.97;67.43;98938.38;3122809;28;19936;-65
2022/08/22 05:39:09;;;;;;;;;;;;;;;24.56;65.51;98943.09;3122747;28;20230;-65
2022/08/22 05:40:41;;;;;;;;;;;;;;;24.95;63.94;98944.72;3122685;28;20270;-66
2022/08/22 05:42:15;;;;;;;;;;;;;;;25.13;63.33;98945.22;3113038;28;19940;-65
2022/08/22 05:43:48;;;;;;;;;;;;;;;25.06;63.30;98943.47;3110734;28;20320;-65
2022/08/22 05:45:19;;;;;;;;;;;;;;;24.86;63.83;98943.97;3122017;28;19936;-66
2022/08/22 05:46:54;;;;;;;;;;;;;;;24.70;64.31;98950.31;3123046;28;19939;-66
2022/08/22 05:48:30;;;;;;;;;;;;;;;24.67;64.63;98945.34;3123173;28;19925;-65
2022/08/22 05:50:07;;;;;;;;;;;;;;;24.73;64.66;98951.78;3123091;28;19935;-64
2022/08/22 05:51:42;;;;;;;;;;;;;;;24.77;64.50;98945.06;3122846;28;19928;-64
2022/08/22 05:53:17;;;;;;;;;;;;;;;24.74;63.62;98959.56;3122867;28;19929;-64
2022/08/22 05:54:52;;;;;;;;;;;;;;;24.64;63.57;98953.69;3122628;28;19925;-65
2022/08/22 05:56:30;;;;;;;;;;;;;;;24.55;63.64;98956.59;3122910;28;19962;-65
2022/08/22 05:58:12;;;;;;;;;;;;;;;24.50;64.24;98954.47;3122696;28;19990;-64
2022/08/22 05:59:45;;;;;;;;;;;;;;;24.46;64.06;98958.47;3122748;28;20371;-65
2022/08/22 06:01:21;;;;;;;;;;;;;;;24.41;64.18;98958.19;3122553;28;19929;-65
2022/08/22 06:03:00;;;;;;;;;;;;;;;24.43;64.37;98958.84;3123066;28;19925;-65
2022/08/22 06:04:35;;;;;;;;;;;;;;;24.45;64.23;98956.84;3122770;28;19993;-65
2022/08/22 06:06:13;;;;;;;;;;;;;;;24.39;63.40;98947.69;3137752;27;19937;-65
2022/08/22 06:07:46;;;;;;;;;;;;;;;24.41;63.85;98950.19;3122614;28;20005;-64
2022/08/22 06:09:19;;;;;;;;;;;;;;;24.38;63.20;98945.22;3122778;28;19933;-64
2022/08/22 06:10:53;;;;;;;;;;;;;;;24.34;63.51;98949.25;3118561;28;19925;-64
2022/08/22 06:12:30;;;;;;;;;;;;;;;24.27;63.12;98947.28;3116689;28;19925;-64
2022/08/22 06:14:08;;;;;;;;;;;;;;;24.27;62.78;98955.28;3122515;28;19989;-64
2022/08/22 06:15:45;;;;;;;;;;;;;;;24.35;62.72;98946.41;3121871;28;19925;-64
2022/08/22 06:17:18;;;;;;;;;;;;;;;24.36;63.00;98947.22;3121490;28;20012;-64
2022/08/22 06:18:51;;;;;;;;;;;;;;;24.38;62.50;98953.22;3122682;28;19933;-64
2022/08/22 06:20:24;;;;;;;;;;;;;;;24.36;62.25;98947.22;3122523;28;19940;-64
2022/08/22 06:21:57;;;;;;;;;;;;;;;24.40;62.54;98948.53;3121816;28;19937;-64
2022/08/22 06:23:31;;;;;;;;;;;;;;;24.39;62.68;98952.19;3122846;28;19936;-64
2022/08/22 06:25:06;;;;;;;;;;;;;;;24.46;62.61;98959.34;3122406;28;19952;-64
2022/08/22 06:26:41;;;;;;;;;;;;;;;24.54;62.22;98950.44;3122259;28;19933;-64
2022/08/22 06:28:16;;;;;;;;;;;;;;;24.60;62.49;98955.03;3122253;28;19944;-64
2022/08/22 06:29:49;;;;;;;;;;;;;;;24.69;62.49;98953.94;3116325;28;20286;-64
2022/08/22 06:31:23;;;;;;;;;;;;;;;24.74;61.91;98964.06;3118443;28;20286;-64
2022/08/22 06:32:59;;;;;;;;;;;;;;;24.75;61.95;98957.72;3122264;28;20288;-64
2022/08/22 06:34:34;;;;;;;;;;;;;;;24.82;62.42;98964.00;3122357;28;20237;-65
2022/08/22 06:38:00;;;;;;;;;;;;;;;24.95;61.89;98958.88;3122534;28;19925;-65
2022/08/22 06:39:33;;;;;;;;;;;;;;;24.95;61.50;98960.72;3122535;28;19929;-64
2022/08/22 06:41:07;;;;;;;;;;;;;;;24.95;61.58;98956.19;3121303;28;20010;-65
2022/08/22 06:42:41;;;;;;;;;;;;;;;25.02;61.95;98955.47;3113419;28;19990;-65
2022/08/22 06:44:15;;;;;;;;;;;;;;;25.08;61.35;98958.25;3122495;28;19982;-65
2022/08/22 06:45:47;;;;;;;;;;;;;;;25.16;61.36;98955.50;3122403;28;19925;-65
2022/08/22 06:47:22;;;;;;;;;;;;;;;25.22;60.99;98953.94;3122515;28;19929;-64
2022/08/22 06:48:54;;;;;;;;;;;;;;;25.30;60.51;98956.53;3122463;28;19929;-65
2022/08/22 06:50:29;;;;;;;;;;;;;;;25.36;60.36;98953.13;3122333;28;20459;-65
2022/08/22 06:52:05;;;;;;;;;;;;;;;25.48;60.29;98957.97;3122455;28;19925;-65
2022/08/22 06:53:41;;;;;;;;;;;;;;;25.55;60.06;98949.03;3122107;28;19951;-65
2022/08/22 06:55:13;;;;;;;;;;;;;;;25.60;59.61;98959.97;3122242;28;19929;-65
2022/08/22 06:56:46;;;;;;;;;;;;;;;25.69;59.89;98955.38;3122426;28;19941;-65
2022/08/22 06:58:20;;;;;;;;;;;;;;;25.77;59.92;98955.25;3122232;28;19929;-65
2022/08/22 06:59:53;;;;;;;;;;;;;;;25.86;59.38;98954.16;3122133;28;20001;-65
2022/08/22 07:01:25;;;;;;;;;;;;;;;25.92;59.39;98943.75;3122283;28;20297;-65
2022/08/22 07:03:00;;;;;;;;;;;;;;;26.12;58.35;98951.94;3111051;28;19926;-65
2022/08/22 07:04:32;;;;;;;;;;;;;;;26.27;58.36;98960.75;3122262;28;19925;-65
2022/08/22 07:06:04;;;;;;;;;;;;;;;26.37;57.76;98958.56;3122203;28;19929;-65
2022/08/22 07:07:36;;;;;;;;;;;;;;;26.43;58.00;98962.31;3120358;28;19925;-65
2022/08/22 07:09:19;;;;;;;;;;;;;;;26.54;58.28;98954.66;3122217;28;20016;-65
2022/08/22 07:10:56;;;;;;;;;;;;;;;26.66;57.53;98964.81;3118284;28;19926;-65
2022/08/22 07:12:30;;;;;;;;;;;;;;;26.72;56.95;98962.19;3116574;28;20021;-65
2022/08/22 07:14:03;;;;;;;;;;;;;;;26.83;57.28;98965.31;3122062;28;19946;-65
2022/08/22 07:15:36;;;;;;;;;;;;;;;26.92;56.41;98966.88;3122292;28;19957;-65
2022/08/22 07:17:09;;;;;;;;;;;;;;;27.01;56.74;98968.34;3122073;28;19940;-65
2022/08/22 07:18:46;;;;;;;;;;;;;;;27.09;55.73;98964.69;3121533;28;19933;-66
2022/08/22 07:20:23;;;;;;;;;;;;;;;27.24;55.97;98965.41;3121942;28;19929;-65
2022/08/22 07:21:55;;;;;;;;;;;;;;;27.37;55.76;98970.03;3121974;28;20337;-65
2022/08/22 07:23:31;;;;;;;;;;;;;;;27.49;55.88;98967.63;3122071;28;19929;-65
2022/08/22 07:25:07;;;;;;;;;;;;;;;27.57;55.71;98967.47;3121964;28;20323;-65
2022/08/22 07:26:42;;;;;;;;;;;;;;;27.64;55.07;98963.78;3121943;28;19937;-65
2022/08/22 07:28:20;;;;;;;;;;;;;;;27.63;54.15;98956.78;3121909;28;19925;-65
2022/08/22 07:29:56;;;;;;;;;;;;;;;27.57;53.96;98962.13;3122098;28;19932;-65
2022/08/22 07:31:32;;;;;;;;;;;;;;;27.52;53.41;98961.88;3121863;28;20031;-65
2022/08/22 07:33:06;;;;;;;;;;;;;;;27.52;54.36;98961.88;3121831;28;19925;-65
2022/08/22 07:34:44;;;;;;;;;;;;;;;27.49;53.82;98963.09;3122250;28;20024;-65
2022/08/22 07:36:22;;;;;;;;;;;;;;;27.45;53.56;98954.66;3122019;28;19940;-65
2022/08/22 07:38:01;;;;;;;;;;;;;;;27.36;53.58;98955.84;3121757;28;19937;-65
2022/08/22 07:39:35;;;;;;;;;;;;;;;27.30;53.54;98961.13;3121965;28;19929;-65
2022/08/22 07:41:11;;;;;;;;;;;;;;;27.29;54.06;98960.31;3120729;28;19925;-65
2022/08/22 07:42:47;;;;;;;;;;;;;;;27.30;53.54;98959.31;3113654;28;20015;-66
2022/08/22 07:44:21;;;;;;;;;;;;;;;27.20;53.44;98966.84;3121766;28;20304;-65
2022/08/22 07:45:57;;;;;;;;;;;;;;;27.18;53.63;98960.88;3115603;28;20261;-65
2022/08/22 07:47:34;;;;;;;;;;;;;;;27.18;53.43;98966.22;3121649;28;19929;-65
2022/08/22 07:49:10;;;;;;;;;;;;;;;27.11;53.20;98971.50;3122011;28;19925;-65
2022/08/22 07:50:46;;;;;;;;;;;;;;;27.05;53.21;98968.78;3121825;28;19925;-65
2022/08/22 07:52:18;;;;;;;;;;;;;;;26.90;53.53;98971.56;3121818;28;19983;-65
2022/08/22 07:53:55;;;;;;;;;;;;;;;26.89;53.34;98962.72;3120774;28;19929;-66
2022/08/22 07:55:27;;;;;;;;;;;;;;;26.88;53.84;98969.06;3121717;28;19939;-65
2022/08/22 07:57:03;;;;;;;;;;;;;;;26.91;53.49;98963.34;3121604;28;20369;-65
2022/08/22 07:58:38;;;;;;;;;;;;;;;26.98;53.99;98961.56;3121564;28;19936;-65
2022/08/22 08:00:12;;;;;;;;;;;;;;;27.10;54.03;98964.50;3121558;28;19933;-65
2022/08/22 08:01:45;;;;;;;;;;;;;;;27.25;53.94;98960.94;3112203;28;19929;-65
2022/08/22 08:03:17;;;;;;;;;;;;;;;27.36;53.54;98971.88;3121534;28;20032;-65
2022/08/22 08:04:51;;;;;;;;;;;;;;;27.47;53.00;98962.47;3121736;28;19951;-65
2022/08/22 08:06:24;;;;;;;;;;;;;;;27.58;53.41;98961.91;3136615;27;19929;-65
2022/08/22 08:07:56;;;;;;;;;;;;;;;27.72;52.62;98960.09;3119432;28;19940;-65
2022/08/22 08:09:31;;;;;;;;;;;;;;;27.81;52.43;98956.25;3120953;28;19929;-65
2022/08/22 08:11:02;;;;;;;;;;;;;;;27.96;51.37;98953.41;3116174;28;19929;-65
2022/08/22 08:12:38;;;;;;;;;;;;;;;28.09;51.79;98956.09;3116920;28;19933;-65
2022/08/22 08:14:10;;;;;;;;;;;;;;;28.29;51.67;98960.69;3121116;28;19946;-65
2022/08/22 08:15:44;;;;;;;;;;;;;;;28.40;51.82;98961.94;3121650;28;20062;-65
2022/08/22 08:17:21;;;;;;;;;;;;;;;28.45;50.87;98962.97;3121418;28;20357;-65
2022/08/22 08:18:56;;;;;;;;;;;;;;;28.53;50.50;98959.28;3121457;28;19929;-65
2022/08/22 08:20:29;;;;;;;;;;;;;;;28.65;50.22;98954.94;3121812;28;19933;-65
2022/08/22 08:22:01;;;;;;;;;;;;;;;28.77;49.55;98955.97;3121235;28;19925;-65
2022/08/22 08:23:36;;;;;;;;;;;;;;;28.88;49.39;98954.53;3121634;28;19986;-65
2022/08/22 08:25:08;;;;;;;;;;;;;;;29.05;49.35;98952.28;3121644;28;19986;-65
2022/08/22 08:28:32;;;;;;;;;;;;;;;29.17;49.46;98955.94;3121655;28;19932;-65
2022/08/22 08:28:40;;;;;;;;;;;;;;;29.32;48.85;98960.25;3109323;28;19926;-65
2022/08/22 08:30:14;;;;;;;;;;;;;;;29.38;48.48;98956.72;3118565;28;19961;-65